Time;durP1;ratioP1;P1;durP2;ratioP2;P2;SDS_P1;SDS_P2;PMS_P1;PMS_P2;Temp;Humidity;BMP_temperature;BMP_pressure;BME280_temperature;BME280_humidity;BME280_pressure;Samples;Min_cycle;Max_cycle;Signal;HPM_P1;HPM_P2
2022/05/18 00:00:35;;;;;;;10.90;5.38;;;17.80;99.90;;;;;;5098350;28;20020;-79
2022/05/18 00:03:07;;;;;;;12.32;5.60;;;17.80;99.90;;;;;;5077196;28;20040;-81
2022/05/18 00:05:35;;;;;;;10.50;5.63;;;17.70;99.90;;;;;;5075465;28;20483;-81
2022/05/18 00:08:00;;;;;;;7.82;5.47;;;17.70;99.90;;;;;;5071161;28;20067;-81
2022/05/18 00:10:26;;;;;;;11.25;5.18;;;17.70;99.90;;;;;;5093678;28;20067;-81
2022/05/18 00:12:52;;;;;;;14.45;5.60;;;17.60;99.90;;;;;;5089094;28;20527;-81
2022/05/18 00:15:20;;;;;;;13.07;5.80;;;17.60;99.90;;;;;;5092865;28;20096;-81
2022/05/18 00:17:46;;;;;;;9.88;5.55;;;17.60;99.90;;;;;;5077797;28;20050;-81
2022/05/18 00:20:13;;;;;;;10.93;5.55;;;17.50;99.90;;;;;;5092896;28;20044;-81
2022/05/18 00:22:51;;;;;;;14.05;6.22;;;17.40;99.90;;;;;;5069319;28;20060;-81
2022/05/18 00:25:18;;;;;;;9.63;5.88;;;17.40;99.90;;;;;;5077203;28;20093;-81
2022/05/18 00:27:44;;;;;;;12.45;6.10;;;17.40;99.90;;;;;;5092161;28;20491;-81
2022/05/18 00:30:12;;;;;;;10.38;5.78;;;17.20;99.90;;;;;;5076387;28;20051;-79
2022/05/18 00:32:37;;;;;;;11.30;6.10;;;17.30;99.90;;;;;;5080202;28;20177;-79
2022/05/18 00:35:04;;;;;;;13.20;6.30;;;17.30;99.90;;;;;;5094448;28;20147;-77
2022/05/18 00:37:29;;;;;;;13.80;6.32;;;17.20;99.90;;;;;;5090270;28;20057;-77
2022/05/18 00:39:55;;;;;;;19.30;6.30;;;17.20;99.90;;;;;;5080867;28;20052;-78
2022/05/18 00:42:23;;;;;;;14.48;6.30;;;17.10;99.90;;;;;;5079487;28;20055;-78
2022/05/18 00:44:49;;;;;;;12.93;6.20;;;17.20;99.90;;;;;;5081743;28;20040;-78
2022/05/18 00:47:15;;;;;;;9.20;5.70;;;17.10;99.90;;;;;;5077326;28;20313;-78
2022/05/18 00:49:45;;;;;;;12.50;5.68;;;17.10;99.90;;;;;;5074142;28;20036;-78
2022/05/18 00:52:12;;;;;;;16.42;6.50;;;17.00;99.90;;;;;;5093682;28;20147;-78
2022/05/18 00:54:39;;;;;;;12.05;5.47;;;17.00;99.90;;;;;;5095683;28;20054;-79
2022/05/18 00:57:10;;;;;;;12.60;5.97;;;16.90;99.90;;;;;;5093393;28;20044;-78
2022/05/18 00:59:46;;;;;;;12.73;6.13;;;16.90;99.90;;;;;;5075790;28;20051;-78
2022/05/18 01:02:13;;;;;;;11.90;5.80;;;16.90;99.90;;;;;;5098137;28;20032;-78
2022/05/18 01:04:41;;;;;;;10.15;5.35;;;16.90;99.90;;;;;;5079137;28;20533;-79
2022/05/18 01:07:16;;;;;;;13.88;5.90;;;16.90;99.90;;;;;;5082510;28;20185;-78
2022/05/18 01:09:44;;;;;;;10.95;5.90;;;16.90;99.90;;;;;;5078257;28;20031;-80
2022/05/18 01:12:12;;;;;;;9.95;5.80;;;16.80;99.90;;;;;;5078425;28;20078;-80
2022/05/18 01:14:41;;;;;;;11.80;5.82;;;16.90;99.90;;;;;;5077574;28;20032;-80
2022/05/18 01:17:07;;;;;;;9.85;5.57;;;16.90;99.90;;;;;;5078811;28;20047;-80
2022/05/18 01:19:47;;;;;;;10.90;5.90;;;16.90;99.90;;;;;;5099427;28;20053;-79
2022/05/18 01:22:50;;;;;;;13.38;6.20;;;16.80;99.90;;;;;;5084877;28;20490;-81
2022/05/18 01:25:50;;;;;;;9.88;5.50;;;16.70;99.90;;;;;;5108834;28;20123;-79
2022/05/18 01:28:17;;;;;;;10.75;6.13;;;16.70;99.90;;;;;;5108995;28;20066;-80
2022/05/18 01:30:48;;;;;;;12.32;6.13;;;16.70;99.90;;;;;;5094747;28;20063;-78
2022/05/18 01:33:17;;;;;;;11.82;5.82;;;16.70;99.90;;;;;;5090345;28;20127;-80
2022/05/18 01:35:47;;;;;;;10.90;5.88;;;16.60;99.90;;;;;;5080209;28;20043;-80
2022/05/18 01:38:13;;;;;;;10.32;5.72;;;16.60;99.90;;;;;;5077139;28;20130;-80
2022/05/18 01:40:48;;;;;;;9.68;6.05;;;16.50;99.90;;;;;;5096382;28;20047;-80
2022/05/18 01:43:20;;;;;;;13.65;6.32;;;16.50;99.90;;;;;;5100838;28;20075;-80
2022/05/18 01:45:50;;;;;;;11.25;6.00;;;16.50;99.90;;;;;;5086211;28;20181;-80
2022/05/18 01:48:20;;;;;;;10.18;6.38;;;16.70;99.90;;;;;;5093729;28;20040;-81
2022/05/18 01:50:45;;;;;;;13.52;6.13;;;16.40;99.90;;;;;;5093953;28;20508;-80
2022/05/18 01:53:11;;;;;;;11.00;6.07;;;16.40;99.90;;;;;;5096330;28;20186;-81
2022/05/18 01:55:37;;;;;;;11.90;5.75;;;16.30;99.90;;;;;;5078135;28;20052;-81
2022/05/18 01:58:04;;;;;;;10.82;5.82;;;16.40;99.90;;;;;;5072321;28;20054;-80
2022/05/18 02:00:31;;;;;;;9.48;6.43;;;16.40;99.90;;;;;;5077351;28;20036;-80
2022/05/18 02:02:57;;;;;;;11.77;6.00;;;16.30;99.90;;;;;;5076124;28;20180;-80
2022/05/18 02:05:23;;;;;;;11.85;6.03;;;16.30;99.90;;;;;;5091614;28;20052;-80
2022/05/18 02:07:50;;;;;;;9.52;6.10;;;16.30;99.90;;;;;;5080499;28;20051;-80
2022/05/18 02:10:15;;;;;;;13.93;6.13;;;16.30;99.90;;;;;;5075194;28;20481;-81
2022/05/18 02:12:41;;;;;;;13.60;6.28;;;16.40;99.90;;;;;;5093402;28;20047;-81
2022/05/18 02:15:07;;;;;;;13.18;6.30;;;16.20;99.90;;;;;;5076443;28;20051;-81
2022/05/18 02:17:35;;;;;;;10.45;6.05;;;16.30;99.90;;;;;;5078380;28;20036;-80
2022/05/18 02:20:00;;;;;;;12.40;6.20;;;16.20;99.90;;;;;;5089640;28;20153;-80
2022/05/18 02:22:26;;;;;;;10.00;6.20;;;16.30;99.90;;;;;;5091455;28;20183;-81
2022/05/18 02:24:52;;;;;;;11.18;6.65;;;16.20;99.90;;;;;;5094037;28;20090;-80
2022/05/18 02:27:18;;;;;;;14.32;6.55;;;16.20;99.90;;;;;;5075983;28;20043;-81
2022/05/18 02:29:44;;;;;;;12.02;6.13;;;16.20;99.90;;;;;;5089293;28;20080;-77
2022/05/18 02:32:10;;;;;;;14.48;6.32;;;16.20;99.90;;;;;;5092744;28;20036;-79
2022/05/18 02:34:36;;;;;;;9.80;6.22;;;16.20;99.90;;;;;;5091950;28;20062;-79
2022/05/18 02:37:03;;;;;;;11.05;6.47;;;16.20;99.90;;;;;;5092763;28;20040;-78
2022/05/18 02:39:29;;;;;;;10.57;6.75;;;16.20;99.90;;;;;;5088745;28;20157;-78
2022/05/18 02:41:54;;;;;;;9.57;6.50;;;16.10;99.90;;;;;;5096141;28;20040;-77
2022/05/18 02:44:20;;;;;;;10.88;5.68;;;16.10;99.90;;;;;;5096361;28;20047;-77
2022/05/18 02:46:46;;;;;;;12.93;6.72;;;16.10;99.90;;;;;;5097703;28;20043;-79
2022/05/18 02:49:12;;;;;;;11.20;6.63;;;16.00;99.90;;;;;;5079406;28;20160;-77
2022/05/18 02:51:41;;;;;;;15.93;6.07;;;16.10;99.90;;;;;;5093735;28;21208;-79
2022/05/18 02:56:05;;;;;;;11.52;6.22;;;16.20;99.90;;;;;;5106610;28;20426;-79
2022/05/18 02:56:54;;;;;;;10.48;6.18;;;16.00;99.90;;;;;;5093492;28;20471;-79
2022/05/18 02:59:21;;;;;;;10.48;6.22;;;15.90;99.90;;;;;;5075830;28;20128;-79
2022/05/18 03:01:48;;;;;;;11.07;6.03;;;15.90;99.90;;;;;;5077198;28;20063;-80
2022/05/18 03:04:14;;;;;;;9.90;6.10;;;16.00;99.90;;;;;;5090417;28;20055;-81
2022/05/18 03:06:40;;;;;;;11.82;6.20;;;15.90;99.90;;;;;;5081805;28;20478;-79
2022/05/18 03:09:06;;;;;;;10.65;6.43;;;15.90;99.90;;;;;;5076347;28;20043;-79
2022/05/18 03:11:32;;;;;;;12.38;5.97;;;15.90;99.90;;;;;;5076284;28;20414;-80
2022/05/18 03:13:58;;;;;;;12.73;6.38;;;15.80;99.90;;;;;;5073282;28;20108;-80
2022/05/18 03:16:25;;;;;;;11.90;6.00;;;15.90;99.90;;;;;;5079348;28;20450;-80
2022/05/18 03:18:51;;;;;;;10.43;6.97;;;15.90;99.90;;;;;;5074298;28;20036;-79
2022/05/18 03:24:01;;;;;;;10.13;6.53;;;15.80;99.90;;;;;;5089810;28;20057;-80
2022/05/18 03:26:27;;;;;;;9.25;6.15;;;15.80;99.90;;;;;;5074263;28;20048;-79
2022/05/18 03:28:57;;;;;;;11.13;7.03;;;15.80;99.90;;;;;;5092870;28;20362;-79
2022/05/18 03:31:25;;;;;;;10.93;6.55;;;15.80;99.90;;;;;;5075489;28;20040;-79
2022/05/18 03:33:50;;;;;;;9.20;6.55;;;15.80;99.90;;;;;;5083503;28;20160;-79
2022/05/18 03:36:19;;;;;;;16.77;6.93;;;15.70;99.90;;;;;;5081236;28;20134;-79
2022/05/18 03:38:46;;;;;;;14.88;7.30;;;15.80;99.90;;;;;;5093743;28;20056;-79
2022/05/18 03:41:13;;;;;;;9.98;6.63;;;15.70;99.90;;;;;;5093022;28;20036;-79
2022/05/18 03:43:39;;;;;;;17.13;7.40;;;15.70;99.90;;;;;;5093825;28;20065;-79
2022/05/18 03:46:06;;;;;;;13.40;6.45;;;15.70;99.90;;;;;;5080293;28;20096;-79
2022/05/18 03:48:32;;;;;;;12.88;6.93;;;15.70;99.90;;;;;;5077098;28;20044;-78
2022/05/18 03:51:00;;;;;;;12.98;6.70;;;15.70;99.90;;;;;;5094682;28;20036;-79
2022/05/18 03:53:27;;;;;;;10.93;6.70;;;15.60;99.90;;;;;;5071671;28;20047;-79
2022/05/18 03:55:54;;;;;;;13.50;6.68;;;15.60;99.90;;;;;;5098328;28;20043;-80
2022/05/18 03:58:20;;;;;;;12.35;6.97;;;15.60;99.90;;;;;;5072759;28;20067;-79
2022/05/18 04:00:49;;;;;;;9.88;6.88;;;15.60;99.90;;;;;;5074003;28;20036;-81
2022/05/18 04:03:16;;;;;;;12.50;6.70;;;15.70;99.90;;;;;;5095653;28;20047;-80
2022/05/18 04:05:47;;;;;;;12.75;6.65;;;15.70;99.90;;;;;;5075350;28;20518;-81
2022/05/18 04:08:13;;;;;;;10.23;6.13;;;15.70;99.90;;;;;;5092180;28;20047;-79
2022/05/18 04:11:29;;;;;;;11.90;6.68;;;15.70;99.90;;;;;;5093555;28;20043;-78
2022/05/18 04:13:55;;;;;;;10.70;6.32;;;15.70;99.90;;;;;;5079915;28;20042;-80
2022/05/18 04:16:21;;;;;;;10.48;6.05;;;15.70;99.90;;;;;;5103312;28;20040;-78
2022/05/18 04:18:46;;;;;;;9.32;6.30;;;15.70;99.90;;;;;;5095278;28;20082;-76
2022/05/18 04:21:12;;;;;;;13.98;6.10;;;15.80;99.90;;;;;;5083353;28;20111;-79
2022/05/18 04:23:39;;;;;;;13.70;6.82;;;15.80;99.90;;;;;;5094822;28;20841;-80
2022/05/18 04:26:06;;;;;;;15.35;7.13;;;15.80;99.90;;;;;;5073338;28;20043;-80
2022/05/18 04:28:32;;;;;;;13.20;7.10;;;15.80;99.90;;;;;;5072097;28;20075;-80
2022/05/18 04:30:58;;;;;;;10.30;6.30;;;15.90;99.90;;;;;;5073725;28;20047;-81
2022/05/18 04:33:24;;;;;;;11.10;6.60;;;15.90;99.90;;;;;;5077838;28;20048;-80
2022/05/18 04:35:51;;;;;;;12.07;6.15;;;15.90;99.90;;;;;;5092089;28;20044;-81
2022/05/18 04:38:18;;;;;;;9.68;6.68;;;15.90;99.90;;;;;;5066686;28;20067;-80
2022/05/18 04:40:45;;;;;;;12.35;6.28;;;16.00;99.90;;;;;;5073565;28;20110;-81
2022/05/18 04:43:10;;;;;;;14.65;6.93;;;16.00;99.90;;;;;;5072519;28;20044;-80
2022/05/18 04:45:39;;;;;;;12.15;6.70;;;16.00;99.90;;;;;;5082472;28;20031;-80
2022/05/18 04:48:05;;;;;;;10.15;6.28;;;16.20;99.90;;;;;;5062625;28;20074;-80
2022/05/18 04:50:31;;;;;;;13.45;6.43;;;16.10;99.90;;;;;;5075018;28;20044;-80
2022/05/18 04:52:56;;;;;;;13.38;6.88;;;16.20;99.90;;;;;;5087620;28;20063;-80
2022/05/18 04:55:22;;;;;;;10.88;6.60;;;16.30;99.90;;;;;;5091926;28;20101;-80
2022/05/18 04:58:28;;;;;;;13.95;6.57;;;16.40;99.90;;;;;;5071051;28;20044;-81
2022/05/18 05:01:04;;;;;;;11.98;6.55;;;16.50;99.90;;;;;;5076177;28;20032;-81
2022/05/18 05:03:30;;;;;;;15.43;7.10;;;16.60;99.90;;;;;;5077121;28;20441;-80
2022/05/18 05:05:55;;;;;;;7.55;6.20;;;16.60;99.90;;;;;;5094543;28;20325;-81
2022/05/18 05:08:21;;;;;;;9.27;6.43;;;16.70;99.90;;;;;;5070108;28;20055;-80
2022/05/18 05:10:47;;;;;;;12.73;6.50;;;16.70;99.90;;;;;;5098494;28;20039;-80
2022/05/18 05:13:12;;;;;;;14.50;6.07;;;16.80;99.90;;;;;;5094144;28;20136;-78
2022/05/18 05:15:38;;;;;;;13.55;6.57;;;16.90;99.90;;;;;;5097755;28;20047;-81
2022/05/18 05:18:04;;;;;;;9.90;6.50;;;17.00;99.90;;;;;;5093122;28;20052;-80
2022/05/18 05:20:30;;;;;;;10.98;6.50;;;17.00;99.90;;;;;;5094400;28;20031;-80
2022/05/18 05:22:56;;;;;;;13.63;6.60;;;17.00;99.90;;;;;;5077557;28;20048;-80
2022/05/18 05:25:21;;;;;;;9.65;6.45;;;17.00;99.90;;;;;;5073627;28;20074;-79
2022/05/18 05:27:47;;;;;;;9.77;3.95;;;17.10;99.90;;;;;;5092007;28;20079;-74
2022/05/18 05:30:13;;;;;;;20.10;5.68;;;17.30;99.90;;;;;;5076126;28;20479;-74
2022/05/18 05:32:40;;;;;;;15.43;5.90;;;17.40;99.90;;;;;;5090575;28;20051;-75
2022/05/18 05:35:08;;;;;;;12.57;5.50;;;17.70;99.90;;;;;;5093108;28;20032;-75
2022/05/18 05:37:34;;;;;;;10.60;6.25;;;17.80;99.90;;;;;;5094572;28;20040;-76
2022/05/18 05:40:00;;;;;;;8.90;5.55;;;17.80;99.90;;;;;;5077576;28;20047;-75
2022/05/18 05:42:25;;;;;;;17.10;5.90;;;18.00;99.90;;;;;;5094197;28;20044;-72
2022/05/18 05:44:51;;;;;;;10.55;6.35;;;18.00;99.90;;;;;;5095329;28;20109;-75
2022/05/18 05:47:17;;;;;;;11.20;5.65;;;18.00;99.90;;;;;;5075208;28;20518;-78
2022/05/18 05:49:43;;;;;;;14.02;5.38;;;18.00;99.90;;;;;;5074115;28;20383;-76
2022/05/18 05:52:09;;;;;;;7.80;5.47;;;18.20;99.90;;;;;;5089133;28;20054;-77
2022/05/18 05:54:35;;;;;;;9.73;6.20;;;18.30;99.90;;;;;;5074639;28;20048;-77
2022/05/18 05:57:04;;;;;;;11.27;6.72;;;18.40;99.90;;;;;;5090930;28;20104;-77
2022/05/18 05:59:31;;;;;;;12.15;6.07;;;18.40;99.90;;;;;;5096402;28;20067;-77
2022/05/18 06:02:02;;;;;;;10.48;6.93;;;18.60;99.90;;;;;;5077397;28;20078;-79
2022/05/18 06:04:33;;;;;;;11.60;7.57;;;18.50;99.90;;;;;;5092681;28;20048;-78
2022/05/18 06:06:58;;;;;;;9.25;6.30;;;18.60;99.90;;;;;;5070088;28;20102;-76
2022/05/18 06:09:24;;;;;;;7.60;5.57;;;18.60;99.90;;;;;;5093618;28;20035;-75
2022/05/18 06:11:50;;;;;;;10.80;7.13;;;18.70;99.90;;;;;;5071383;28;20039;-76
2022/05/18 06:14:18;;;;;;;17.15;7.25;;;18.70;99.90;;;;;;5090530;28;20418;-78
2022/05/18 06:16:46;;;;;;;11.60;6.00;;;18.80;99.90;;;;;;5071376;28;20048;-78
2022/05/18 06:19:13;;;;;;;15.40;7.82;;;18.80;99.90;;;;;;5071822;28;20032;-75
2022/05/18 06:21:39;;;;;;;18.20;7.18;;;18.80;99.90;;;;;;5091108;28;20063;-74
2022/05/18 06:24:05;;;;;;;13.20;7.80;;;18.80;99.90;;;;;;5073075;28;20039;-74
2022/05/18 06:26:31;;;;;;;14.02;7.80;;;18.80;99.90;;;;;;5086799;28;20085;-75
2022/05/18 06:28:57;;;;;;;12.00;7.15;;;18.90;99.90;;;;;;5071648;28;20096;-75
2022/05/18 06:31:22;;;;;;;15.38;7.88;;;18.90;99.90;;;;;;5090664;28;20483;-74
2022/05/18 06:33:48;;;;;;;15.82;8.43;;;18.90;99.90;;;;;;5089355;28;20548;-75
2022/05/18 06:36:14;;;;;;;10.95;6.70;;;18.90;99.90;;;;;;5090771;28;20059;-74
2022/05/18 06:38:40;;;;;;;14.18;8.48;;;19.00;99.90;;;;;;5086047;28;20123;-74
2022/05/18 06:41:24;;;;;;;12.43;8.30;;;19.00;99.90;;;;;;5088582;28;20458;-74
2022/05/18 06:44:00;;;;;;;13.17;8.87;;;19.10;99.90;;;;;;5086255;28;20035;-74
2022/05/18 06:46:27;;;;;;;15.75;8.60;;;19.20;99.90;;;;;;5090437;28;20286;-74
2022/05/18 06:48:54;;;;;;;16.85;9.25;;;19.30;99.90;;;;;;5073718;28;20052;-74
2022/05/18 06:51:32;;;;;;;14.40;7.43;;;19.30;99.90;;;;;;5091235;28;20070;-74
2022/05/18 06:53:58;;;;;;;13.38;9.25;;;19.40;99.90;;;;;;5095115;28;20122;-75
2022/05/18 06:56:30;;;;;;;17.50;8.93;;;19.50;99.90;;;;;;5072318;28;20122;-74
2022/05/18 06:58:56;;;;;;;15.38;8.68;;;19.60;99.90;;;;;;5092928;28;20058;-75
2022/05/18 07:01:23;;;;;;;16.15;9.95;;;19.60;99.90;;;;;;5089605;28;20044;-75
2022/05/18 07:03:49;;;;;;;16.90;10.10;;;19.70;99.90;;;;;;5096306;28;20098;-74
2022/05/18 07:06:17;;;;;;;18.95;10.10;;;19.80;99.90;;;;;;5093678;28;20051;-74
2022/05/18 07:08:43;;;;;;;17.98;10.27;;;19.90;99.90;;;;;;5093773;28;20040;-73
2022/05/18 07:11:08;;;;;;;20.48;10.38;;;19.90;99.90;;;;;;5076398;28;20036;-76
2022/05/18 07:13:35;;;;;;;13.73;9.10;;;20.10;99.90;;;;;;5072210;28;20040;-75
2022/05/18 07:16:02;;;;;;;16.35;9.85;;;20.10;99.90;;;;;;5077765;28;20097;-76
2022/05/18 07:18:29;;;;;;;12.75;9.25;;;20.20;99.90;;;;;;5098148;28;20081;-76
2022/05/18 07:21:00;;;;;;;21.52;10.52;;;20.20;99.90;;;;;;5090513;28;20056;-75
2022/05/18 07:23:26;;;;;;;16.45;10.30;;;20.30;99.90;;;;;;5092656;28;20028;-78
2022/05/18 07:25:53;;;;;;;17.25;10.70;;;20.40;99.90;;;;;;5090080;28;20167;-77
2022/05/18 07:28:19;;;;;;;20.52;10.45;;;20.50;99.90;;;;;;5101301;28;20139;-77
2022/05/18 07:30:45;;;;;;;19.45;10.73;;;20.60;99.90;;;;;;5083561;28;20055;-78
2022/05/18 07:33:11;;;;;;;17.02;10.30;;;20.70;99.90;;;;;;5090313;28;20044;-78
2022/05/18 07:35:37;;;;;;;16.45;10.70;;;20.80;99.90;;;;;;5078735;28;20254;-77
2022/05/18 07:38:03;;;;;;;18.73;10.93;;;20.90;99.90;;;;;;5072915;28;20066;-77
2022/05/18 07:40:29;;;;;;;17.33;11.15;;;21.00;99.90;;;;;;5089953;28;20048;-78
2022/05/18 07:42:56;;;;;;;19.98;10.15;;;21.00;99.90;;;;;;5075696;28;20055;-77
2022/05/18 07:45:25;;;;;;;21.35;9.80;;;21.10;99.90;;;;;;5090817;28;20055;-77
2022/05/18 07:47:54;;;;;;;17.50;10.10;;;21.20;99.90;;;;;;5090458;28;20052;-77
2022/05/18 07:50:26;;;;;;;15.35;9.80;;;21.30;99.90;;;;;;5090580;28;20418;-77
2022/05/18 07:52:57;;;;;;;16.15;9.98;;;21.40;99.90;;;;;;5088096;28;20078;-79
2022/05/18 07:55:23;;;;;;;15.00;9.48;;;21.50;99.90;;;;;;5098931;28;20123;-78
2022/05/18 07:57:49;;;;;;;14.15;9.05;;;21.50;99.90;;;;;;5084603;28;20150;-77
2022/05/18 08:00:15;;;;;;;16.77;9.32;;;21.60;99.90;;;;;;5073708;28;20039;-78
2022/05/18 08:02:41;;;;;;;11.80;8.25;;;21.60;99.90;;;;;;5089518;28;20378;-78
2022/05/18 08:05:07;;;;;;;12.10;6.90;;;21.60;99.90;;;;;;5061310;28;20044;-79
2022/05/18 08:07:34;;;;;;;15.63;7.50;;;21.80;99.90;;;;;;5078966;28;20037;-77
2022/05/18 08:15:29;;;;;;;14.55;6.05;;;22.10;99.90;;;;;;5067976;28;20051;-78
2022/05/18 08:17:55;;;;;;;13.02;5.35;;;22.30;99.90;;;;;;5074362;28;20056;-78
2022/05/18 08:20:22;;;;;;;10.27;5.13;;;22.50;99.90;;;;;;5075432;28;20043;-77
2022/05/18 08:22:48;;;;;;;12.02;4.20;;;22.60;99.90;;;;;;5051329;28;20053;-79
2022/05/18 08:25:14;;;;;;;13.38;4.07;;;22.60;99.90;;;;;;5049989;28;20085;-78
2022/05/18 08:27:45;;;;;;;13.68;3.92;;;22.70;99.90;;;;;;5045383;28;20056;-78
2022/05/18 08:30:14;;;;;;;10.30;4.30;;;22.80;99.90;;;;;;5070088;28;20044;-78
2022/05/18 08:32:40;;;;;;;10.85;4.05;;;23.00;99.90;;;;;;5062607;28;20078;-76
2022/05/18 08:35:07;;;;;;;9.68;3.65;;;23.10;99.90;;;;;;5081964;28;20475;-74
2022/05/18 08:37:47;;;;;;;6.07;3.47;;;23.20;99.90;;;;;;5062212;28;20048;-76
2022/05/18 08:40:28;;;;;;;12.18;3.25;;;23.20;99.90;;;;;;5076620;28;20376;-77
2022/05/18 08:42:59;;;;;;;7.72;3.03;;;23.30;99.90;;;;;;5072604;28;20041;-79
2022/05/18 08:45:29;;;;;;;8.15;3.60;;;23.40;99.90;;;;;;5080192;28;20048;-78
2022/05/18 08:48:03;;;;;;;12.30;4.20;;;23.50;99.90;;;;;;5058180;28;20133;-77
2022/05/18 08:50:29;;;;;;;7.57;3.40;;;23.60;99.90;;;;;;5063115;28;20356;-73
2022/05/18 08:53:01;;;;;;;7.85;3.25;;;23.60;99.90;;;;;;5078900;28;20054;-74
2022/05/18 08:56:08;;;;;;;10.07;4.50;;;23.70;99.90;;;;;;5075883;28;20059;-74
2022/05/18 08:58:45;;;;;;;8.07;4.45;;;23.80;99.90;;;;;;5073171;28;20417;-74
2022/05/18 09:01:17;;;;;;;7.60;4.70;;;23.90;99.90;;;;;;5081132;28;20467;-74
2022/05/18 09:03:49;;;;;;;9.82;4.10;;;23.90;99.90;;;;;;5079178;28;20036;-74
2022/05/18 09:06:27;;;;;;;9.73;4.57;;;23.90;99.90;;;;;;5095494;28;20047;-73
2022/05/18 09:11:50;;;;;;;8.50;4.60;;;24.20;99.90;;;;;;5101429;28;20047;-73
2022/05/18 09:14:22;;;;;;;11.25;4.15;;;24.30;99.90;;;;;;5098666;28;20383;-75
2022/05/18 09:17:10;;;;;;;10.95;4.78;;;24.40;99.90;;;;;;5090235;28;20075;-76
2022/05/18 09:20:13;;;;;;;12.35;4.90;;;24.40;99.90;;;;;;5096941;28;20044;-75
2022/05/18 09:23:02;;;;;;;11.05;5.70;;;24.50;99.90;;;;;;5092600;28;20126;-75
2022/05/18 09:25:58;;;;;;;18.48;6.18;;;24.40;99.90;;;;;;5097262;28;20123;-75
2022/05/18 09:28:23;;;;;;;;;;;24.50;99.90;;;;;;5075441;28;20047;-75
2022/05/18 09:31:04;;;;;;;10.45;5.57;;;24.60;99.90;;;;;;5087871;28;20331;-75
2022/05/18 09:33:57;;;;;;;16.98;6.38;;;24.70;99.90;;;;;;5101445;28;20052;-73
2022/05/18 09:37:14;;;;;;;21.02;6.28;;;24.70;99.90;;;;;;5103369;28;20056;-75
2022/05/18 09:39:44;;;;;;;14.35;6.35;;;25.00;99.90;;;;;;5080274;28;20054;-74
2022/05/18 09:42:26;;;;;;;11.48;6.28;;;25.00;99.90;;;;;;5063704;28;20051;-74
2022/05/18 09:45:06;;;;;;;12.18;6.10;;;25.20;99.90;;;;;;5059694;28;20109;-76
2022/05/18 09:47:45;;;;;;;12.90;6.30;;;25.30;99.90;;;;;;5062346;28;20040;-74
2022/05/18 09:50:11;;;;;;;12.55;6.45;;;25.50;99.90;;;;;;5056620;28;20517;-75
2022/05/18 09:52:40;;;;;;;11.90;5.90;;;25.60;99.90;;;;;;5072353;28;20060;-74
2022/05/18 09:55:09;;;;;;;13.50;5.53;;;25.80;99.90;;;;;;5051533;28;20535;-74
2022/05/18 09:57:48;;;;;;;15.25;6.38;;;26.00;99.90;;;;;;5067673;28;20052;-73
2022/05/18 10:00:18;;;;;;;13.43;6.05;;;26.20;99.90;;;;;;5066243;28;20042;-74
2022/05/18 10:08:23;;;;;;;8.63;4.88;;;26.60;99.90;;;;;;5062111;28;20105;-75
2022/05/18 10:10:58;;;;;;;10.75;5.20;;;26.80;99.90;;;;;;5059923;28;20089;-73
2022/05/18 10:13:28;;;;;;;11.65;6.43;;;26.70;99.90;;;;;;5053102;28;20062;-75
2022/05/18 10:16:31;;;;;;;14.75;6.47;;;26.80;99.90;;;;;;5087776;28;20131;-74
2022/05/18 10:18:59;;;;;;;13.18;6.82;;;26.80;99.90;;;;;;5090393;28;20645;-75
2022/05/18 10:21:50;;;;;;;16.38;6.25;;;26.70;99.90;;;;;;5065944;28;20067;-75
2022/05/18 10:24:35;;;;;;;10.90;6.10;;;27.10;99.90;;;;;;5088677;28;20506;-76
2022/05/18 10:27:12;;;;;;;16.02;5.30;;;27.00;99.90;;;;;;5077869;28;20411;-78
2022/05/18 10:29:38;;;;;;;14.35;6.53;;;27.30;99.90;;;;;;5079143;28;20046;-78
2022/05/18 10:32:06;;;;;;;9.98;6.35;;;27.30;99.90;;;;;;5099236;28;20135;-81
2022/05/18 10:34:42;;;;;;;12.68;6.78;;;27.20;99.90;;;;;;5076356;28;20070;-75
2022/05/18 10:37:11;;;;;;;13.02;7.47;;;27.20;99.90;;;;;;5096049;27;20170;-76
2022/05/18 10:39:44;;;;;;;19.25;9.77;;;27.30;99.90;;;;;;5089683;28;20074;-76
2022/05/18 10:42:15;;;;;;;17.77;9.52;;;27.20;99.90;;;;;;5071921;28;20482;-75
2022/05/18 10:44:41;;;;;;;16.48;10.00;;;27.30;99.90;;;;;;5072018;28;20448;-77
2022/05/18 10:47:36;;;;;;;19.23;9.02;;;27.20;99.90;;;;;;5092897;28;20044;-76
2022/05/18 10:50:26;;;;;;;15.52;8.93;;;27.30;99.90;;;;;;5074507;28;20060;-76
2022/05/18 10:53:16;;;;;;;16.23;10.07;;;27.30;99.90;;;;;;5091010;28;20118;-76
2022/05/18 10:56:07;;;;;;;15.63;10.52;;;27.40;99.90;;;;;;5022872;28;20046;-74
2022/05/18 10:58:53;;;;;;;17.75;10.68;;;27.60;99.90;;;;;;5047557;28;20056;-74
2022/05/18 11:01:25;;;;;;;15.90;10.48;;;27.30;99.90;;;;;;5038159;28;20547;-76
2022/05/18 11:03:56;;;;;;;17.00;9.90;;;27.40;99.90;;;;;;5017921;28;20044;-76
2022/05/18 11:06:29;;;;;;;14.77;8.95;;;27.40;99.90;;;;;;5042868;28;20041;-79
2022/05/18 11:09:01;;;;;;;14.75;9.30;;;27.70;99.90;;;;;;5059856;28;20032;-79
2022/05/18 11:11:35;;;;;;;21.67;9.32;;;28.00;99.90;;;;;;5035352;28;20399;-79
2022/05/18 11:14:09;;;;;;;15.18;9.77;;;28.20;99.90;;;;;;5024985;28;20045;-78
2022/05/18 11:16:55;;;;;;;16.57;9.77;;;28.10;99.90;;;;;;5042737;28;20052;-76
2022/05/18 11:19:38;;;;;;;14.00;8.48;;;28.30;99.90;;;;;;5047453;28;20104;-77
2022/05/18 11:22:23;;;;;;;11.40;7.53;;;28.40;99.90;;;;;;5028845;28;20040;-78
2022/05/18 11:25:02;;;;;;;;;;;28.70;99.90;;;;;;5027399;28;20051;-79
2022/05/18 11:27:33;;;;;;;22.73;12.52;;;28.50;99.90;;;;;;5052280;28;20003;-79
2022/05/18 11:30:16;;;;;;;17.98;11.20;;;28.50;99.90;;;;;;5054203;28;20118;-80
2022/05/18 11:32:57;;;;;;;16.63;9.95;;;28.60;99.90;;;;;;5061078;28;20416;-80
2022/05/18 11:36:09;;;;;;;20.45;10.98;;;28.90;99.90;;;;;;5108220;28;20039;-78
2022/05/18 11:39:13;;;;;;;16.02;9.52;;;29.10;99.90;;;;;;5036300;28;20044;-79
2022/05/18 11:42:12;;;;;;;18.60;10.50;;;29.10;99.90;;;;;;4957940;28;20131;-80
2022/05/18 11:45:15;;;;;;;16.67;11.02;;;28.90;99.90;;;;;;4971312;28;20057;-80
2022/05/18 11:48:14;;;;;;;17.40;10.88;;;28.80;99.90;;;;;;4958683;28;20469;-80
2022/05/18 11:51:17;;;;;;;23.75;10.85;;;29.00;99.90;;;;;;4975494;28;20089;-79
2022/05/18 11:54:02;;;;;;;14.00;10.15;;;29.10;99.90;;;;;;4956444;28;20098;-79
2022/05/18 11:56:49;;;;;;;14.75;10.52;;;29.40;99.90;;;;;;4975076;28;20217;-79
2022/05/18 12:02:51;;;;;;;15.38;10.90;;;29.30;99.90;;;;;;4896816;29;20444;-80
2022/05/18 12:05:55;;;;;;;14.55;9.70;;;29.20;99.90;;;;;;4893751;29;20091;-80
2022/05/18 12:08:45;;;;;;;18.85;9.52;;;29.20;99.90;;;;;;4859685;29;20185;-81
2022/05/18 12:11:29;;;;;;;15.90;10.15;;;29.50;99.90;;;;;;4841906;29;20517;-79
2022/05/18 12:14:19;;;;;;;14.30;9.25;;;29.70;99.90;;;;;;4856757;29;20075;-79
2022/05/18 12:16:47;;;;;;;16.30;9.80;;;30.10;99.90;;;;;;4897980;29;20096;-81
2022/05/18 12:19:25;;;;;;;14.40;9.85;;;30.20;99.50;;;;;;4945297;28;20039;-81
2022/05/18 12:22:08;;;;;;;18.33;10.30;;;30.00;99.50;;;;;;4957924;28;20034;-81
2022/05/18 12:24:38;;;;;;;15.35;8.52;;;30.20;99.20;;;;;;4974328;28;20164;-81
2022/05/18 12:27:05;;;;;;;12.50;8.63;;;30.60;99.50;;;;;;4942123;28;20055;-81
2022/05/18 12:29:32;;;;;;;13.57;9.05;;;30.60;99.40;;;;;;4940581;28;20107;-81
2022/05/18 12:31:59;;;;;;;13.57;8.90;;;30.50;98.80;;;;;;4974220;28;20058;-81
2022/05/18 12:34:36;;;;;;;11.50;6.95;;;30.80;98.70;;;;;;4956792;28;20117;-79
2022/05/18 12:37:15;;;;;;;13.02;7.50;;;30.90;99.20;;;;;;4973707;28;20050;-80
2022/05/18 12:40:07;;;;;;;14.98;7.60;;;30.60;98.30;;;;;;5005482;28;20128;-81
2022/05/18 12:42:37;;;;;;;11.27;6.50;;;30.00;98.90;;;;;;5057901;28;20044;-80
2022/05/18 12:45:29;;;;;;;14.07;8.18;;;29.50;99.50;;;;;;5087730;28;20052;-79
2022/05/18 12:48:34;;;;;;;16.95;8.95;;;29.10;99.90;;;;;;5100720;28;20126;-78
2022/05/18 12:51:05;;;;;;;14.00;7.35;;;28.80;99.90;;;;;;5097806;28;20177;-80
2022/05/18 12:53:51;;;;;;;13.73;7.75;;;28.60;99.90;;;;;;5103869;28;20051;-80
2022/05/18 12:56:42;;;;;;;13.73;8.27;;;28.60;99.90;;;;;;5057278;28;20432;-80
2022/05/18 12:59:54;;;;;;;15.07;7.63;;;28.30;99.90;;;;;;4973213;28;20061;-79
2022/05/18 13:02:35;;;;;;;14.10;7.78;;;28.60;99.90;;;;;;4969929;28;20101;-79
2022/05/18 13:05:31;;;;;;;16.63;8.32;;;28.60;99.90;;;;;;4958611;28;20050;-80
2022/05/18 13:08:35;;;;;;;16.75;10.02;;;28.40;99.90;;;;;;4952141;28;20486;-80
2022/05/18 13:11:28;;;;;;;17.75;11.10;;;28.40;99.90;;;;;;4959905;28;20085;-80
2022/05/18 13:14:04;;;;;;;15.95;10.98;;;28.00;99.90;;;;;;4970674;28;20078;-80
2022/05/18 13:16:38;;;;;;;23.00;11.45;;;27.90;99.90;;;;;;4957397;28;20075;-80
2022/05/18 13:19:13;;;;;;;16.08;11.50;;;28.00;99.90;;;;;;4963024;28;20184;-79
2022/05/18 13:21:58;;;;;;;19.65;11.63;;;27.90;99.90;;;;;;4976239;28;20054;-80
2022/05/18 13:24:33;;;;;;;23.33;12.75;;;27.80;99.90;;;;;;4972533;28;20046;-80